createdAt,value
2023-02-01T00:00:00.452Z,991.74
2023-02-01T00:01:00.405Z,991.77
2023-02-01T00:02:00.430Z,991.70
2023-02-01T00:03:00.385Z,991.71
2023-02-01T00:04:00.448Z,991.73
2023-02-01T00:05:00.355Z,991.67
2023-02-01T00:06:00.359Z,991.72
2023-02-01T00:07:00.380Z,991.69
2023-02-01T00:08:00.349Z,991.61
2023-02-01T00:09:00.328Z,991.65
2023-02-01T00:10:00.319Z,991.66
2023-02-01T00:11:00.319Z,991.66
2023-02-01T00:12:00.305Z,991.69
2023-02-01T00:13:00.317Z,991.71
2023-02-01T00:14:00.292Z,991.64
2023-02-01T00:15:01.284Z,991.66
2023-02-01T00:16:00.278Z,991.67
2023-02-01T00:17:00.249Z,991.68
2023-02-01T00:18:00.266Z,991.67
2023-02-01T00:19:00.237Z,991.69
2023-02-01T00:20:00.212Z,991.75
2023-02-01T00:21:00.208Z,991.75
2023-02-01T00:22:00.193Z,991.69
2023-02-01T00:23:00.202Z,991.65
2023-02-01T00:24:00.175Z,991.65
2023-02-01T00:25:00.172Z,991.63
2023-02-01T00:26:00.162Z,991.61
2023-02-01T00:27:00.157Z,991.58
2023-02-01T00:28:00.139Z,991.64
2023-02-01T00:29:00.127Z,991.63
2023-02-01T00:30:00.115Z,991.64
2023-02-01T00:31:00.283Z,991.64
2023-02-01T00:32:00.156Z,991.68
2023-02-01T00:33:00.097Z,991.70
2023-02-01T00:34:00.111Z,991.73
2023-02-01T00:35:00.097Z,991.75
2023-02-01T00:36:00.079Z,991.70
2023-02-01T00:37:00.057Z,991.68
2023-02-01T00:38:00.034Z,991.64
2023-02-01T00:39:00.046Z,991.68
2023-02-01T00:40:00.028Z,991.64
2023-02-01T00:41:00.004Z,991.64
2023-02-01T00:42:00.008Z,991.62
2023-02-01T00:43:00.003Z,991.66
2023-02-01T00:43:59.978Z,991.69
2023-02-01T00:44:59.980Z,991.68
2023-02-01T00:45:59.966Z,991.59
2023-02-01T00:46:59.952Z,991.61
2023-02-01T00:47:59.970Z,991.65
2023-02-01T00:48:59.946Z,991.64
2023-02-01T00:49:59.926Z,991.63
2023-02-01T00:50:59.915Z,991.66
2023-02-01T00:51:59.894Z,991.64
2023-02-01T00:52:59.908Z,991.63
2023-02-01T00:53:59.872Z,991.65
2023-02-01T00:54:59.883Z,991.60
2023-02-01T00:55:59.862Z,991.63
2023-02-01T00:56:59.903Z,991.62
2023-02-01T00:57:59.850Z,991.61
2023-02-01T00:58:59.832Z,991.63
2023-02-01T00:59:59.821Z,991.63
2023-02-01T01:00:59.879Z,991.54
2023-02-01T01:01:59.851Z,991.55
2023-02-01T01:02:59.804Z,991.53
2023-02-01T01:03:59.824Z,991.56
2023-02-01T01:04:59.790Z,991.54
2023-02-01T01:05:59.760Z,991.65
2023-02-01T01:06:59.751Z,991.63
2023-02-01T01:07:59.737Z,991.54
2023-02-01T01:08:59.767Z,991.60
2023-02-01T01:09:59.746Z,991.57
2023-02-01T01:11:07.272Z,991.61
2023-02-01T01:11:59.722Z,991.55
2023-02-01T01:12:59.699Z,991.56
2023-02-01T01:13:59.679Z,991.58
2023-02-01T01:14:59.666Z,991.58
2023-02-01T01:15:59.707Z,991.54
2023-02-01T01:16:59.700Z,991.64
2023-02-01T01:17:59.651Z,991.61
2023-02-01T01:18:59.681Z,991.63
2023-02-01T01:20:00.040Z,991.61
2023-02-01T01:21:00.610Z,991.59
2023-02-01T01:21:59.615Z,991.55
2023-02-01T01:22:59.667Z,991.51
2023-02-01T01:23:59.590Z,991.54
2023-02-01T01:24:59.595Z,991.50
2023-02-01T01:25:59.575Z,991.52
2023-02-01T01:26:59.556Z,991.53
2023-02-01T01:27:59.573Z,991.51
2023-02-01T01:28:59.559Z,991.45
2023-02-01T01:29:59.558Z,991.45
2023-02-01T01:30:59.650Z,991.49
2023-02-01T01:31:59.513Z,991.50
2023-02-01T01:32:59.508Z,991.47
2023-02-01T01:33:59.502Z,991.48
2023-02-01T01:34:59.493Z,991.48
2023-02-01T01:35:59.476Z,991.43
2023-02-01T01:36:59.466Z,991.50
2023-02-01T01:37:59.458Z,991.38
2023-02-01T01:38:59.445Z,991.35
2023-02-01T01:39:59.453Z,991.34
2023-02-01T01:40:59.447Z,991.31
2023-02-01T01:41:59.428Z,991.29
2023-02-01T01:42:59.405Z,991.29
2023-02-01T01:43:59.419Z,991.33
2023-02-01T01:44:59.397Z,991.32
2023-02-01T01:45:59.407Z,991.28
2023-02-01T01:46:59.433Z,991.28
2023-02-01T01:48:00.367Z,991.21
2023-02-01T01:48:59.355Z,991.21
2023-02-01T01:49:59.337Z,991.10
2023-02-01T01:50:59.359Z,991.13
2023-02-01T01:51:59.330Z,991.08
2023-02-01T01:52:59.331Z,991.05
2023-02-01T01:53:59.304Z,991.12
2023-02-01T01:54:59.304Z,991.08
2023-02-01T01:55:59.326Z,991.11
2023-02-01T01:56:59.343Z,991.13
2023-02-01T01:57:59.277Z,991.10
2023-02-01T01:58:59.262Z,991.06
2023-02-01T01:59:59.273Z,991.00
2023-02-01T02:00:59.259Z,990.99
2023-02-01T02:01:59.345Z,991.10
2023-02-01T02:02:59.245Z,991.13
2023-02-01T02:03:59.209Z,991.10
2023-02-01T02:04:59.197Z,991.12
2023-02-01T02:05:59.195Z,991.05
2023-02-01T02:06:59.190Z,991.11
2023-02-01T02:07:59.197Z,991.07
2023-02-01T02:08:59.169Z,991.02
2023-02-01T02:10:01.248Z,990.95
2023-02-01T02:11:00.143Z,991.02
2023-02-01T02:11:59.140Z,990.97
2023-02-01T02:12:59.137Z,990.96
2023-02-01T02:13:59.140Z,990.99
2023-02-01T02:14:59.120Z,990.96
2023-02-01T02:15:59.115Z,990.99
2023-02-01T02:16:59.102Z,991.03
2023-02-01T02:17:59.093Z,991.03
2023-02-01T02:18:59.091Z,991.07
2023-02-01T02:19:59.072Z,991.10
2023-02-01T02:20:59.059Z,991.03
2023-02-01T02:21:59.044Z,991.01
2023-02-01T02:22:59.032Z,990.94
2023-02-01T02:23:59.022Z,990.88
2023-02-01T02:24:59.025Z,990.82
2023-02-01T02:25:58.988Z,990.87
2023-02-01T02:27:00.005Z,990.80
2023-02-01T02:27:58.983Z,990.87
2023-02-01T02:28:58.977Z,990.84
2023-02-01T02:29:58.963Z,990.87
2023-02-01T02:30:59.007Z,990.94
2023-02-01T02:31:59.029Z,990.85
2023-02-01T02:32:58.932Z,990.83
2023-02-01T02:33:58.924Z,990.81
2023-02-01T02:34:58.931Z,990.81
2023-02-01T02:35:58.922Z,990.90
2023-02-01T02:36:58.913Z,990.84
2023-02-01T02:37:58.895Z,990.82
2023-02-01T02:38:58.871Z,990.77
2023-02-01T02:39:58.864Z,990.82
2023-02-01T02:40:58.859Z,990.85
2023-02-01T02:41:58.850Z,990.86
2023-02-01T02:42:58.858Z,990.74
2023-02-01T02:43:58.840Z,990.71
2023-02-01T02:44:58.806Z,990.74
2023-02-01T02:45:58.822Z,990.72
2023-02-01T02:46:58.797Z,990.75
2023-02-01T02:47:58.793Z,990.68
2023-02-01T02:48:58.797Z,990.76
2023-02-01T02:49:58.813Z,990.73
2023-02-01T02:50:58.766Z,990.65
2023-02-01T02:51:58.748Z,990.61
2023-02-01T02:52:58.738Z,990.65
2023-02-01T02:53:58.746Z,990.66
2023-02-01T02:54:58.723Z,990.52
2023-02-01T02:55:58.715Z,990.49
2023-02-01T02:56:58.715Z,990.51
2023-02-01T02:57:59.765Z,990.50
2023-02-01T02:58:58.702Z,990.51
2023-02-01T02:59:58.676Z,990.46
2023-02-01T03:00:58.704Z,990.55
2023-02-01T03:01:58.666Z,990.51
2023-02-01T03:02:58.716Z,990.54
2023-02-01T03:03:58.637Z,990.45
2023-02-01T03:04:58.609Z,990.39
2023-02-01T03:05:58.636Z,990.36
2023-02-01T03:06:58.639Z,990.35
2023-02-01T03:07:58.614Z,990.30
2023-02-01T03:08:58.587Z,990.34
2023-02-01T03:09:58.581Z,990.33
2023-02-01T03:10:58.598Z,990.36
2023-02-01T03:11:58.557Z,990.36
2023-02-01T03:12:58.554Z,990.34
2023-02-01T03:13:58.559Z,990.36
2023-02-01T03:14:58.546Z,990.42
2023-02-01T03:15:58.543Z,990.44
2023-02-01T03:16:58.513Z,990.52
2023-02-01T03:17:58.510Z,990.44
2023-02-01T03:18:58.521Z,990.50
2023-02-01T03:19:58.494Z,990.42
2023-02-01T03:20:58.471Z,990.41
2023-02-01T03:22:44.771Z,990.45
2023-02-01T03:23:44.797Z,990.39
2023-02-01T03:24:44.778Z,990.33
2023-02-01T03:25:45.900Z,990.39
2023-02-01T03:26:45.978Z,990.36
2023-02-01T03:27:45.864Z,990.39
2023-02-01T03:28:45.858Z,990.42
2023-02-01T03:29:45.861Z,990.46
2023-02-01T03:30:45.900Z,990.42
2023-02-01T03:31:45.877Z,990.36
2023-02-01T03:32:45.828Z,990.42
2023-02-01T03:33:45.813Z,990.40
2023-02-01T03:34:45.817Z,990.36
2023-02-01T03:35:45.791Z,990.37
2023-02-01T03:36:45.782Z,990.40
2023-02-01T03:37:45.793Z,990.39
2023-02-01T03:38:45.773Z,990.38
2023-02-01T03:39:45.750Z,990.42
2023-02-01T03:40:45.736Z,990.50
2023-02-01T03:41:45.727Z,990.47
2023-02-01T03:42:45.726Z,990.44
2023-02-01T03:43:45.719Z,990.47
2023-02-01T03:44:45.699Z,990.43
2023-02-01T03:45:45.765Z,990.39
2023-02-01T03:46:45.693Z,990.33
2023-02-01T03:47:45.661Z,990.41
2023-02-01T03:48:45.653Z,990.36
2023-02-01T03:49:45.661Z,990.33
2023-02-01T03:50:45.668Z,990.27
2023-02-01T03:51:45.671Z,990.19
2023-02-01T03:52:45.623Z,990.29
2023-02-01T03:53:45.607Z,990.28
2023-02-01T03:54:45.627Z,990.29
2023-02-01T03:55:45.622Z,990.31
2023-02-01T03:56:45.581Z,990.26
2023-02-01T03:57:45.578Z,990.27
2023-02-01T03:58:45.565Z,990.28
2023-02-01T03:59:45.555Z,990.33
2023-02-01T04:00:45.563Z,990.27
2023-02-01T04:01:45.532Z,990.30
2023-02-01T04:02:45.597Z,990.32
2023-02-01T04:03:45.530Z,990.26
2023-02-01T04:04:45.517Z,990.32
2023-02-01T04:05:45.521Z,990.30
2023-02-01T04:06:45.483Z,990.39
2023-02-01T04:07:45.472Z,990.37
2023-02-01T04:08:45.472Z,990.36
2023-02-01T04:09:45.461Z,990.32
2023-02-01T04:10:45.495Z,990.36
2023-02-01T04:11:45.442Z,990.31
2023-02-01T04:12:45.433Z,990.22
2023-02-01T04:13:45.425Z,990.20
2023-02-01T04:14:45.411Z,990.22
2023-02-01T04:15:45.401Z,990.23
2023-02-01T04:16:45.478Z,990.25
2023-02-01T04:17:45.389Z,990.26
2023-02-01T04:18:45.372Z,990.16
2023-02-01T04:19:45.362Z,990.13
2023-02-01T04:20:45.356Z,990.14
2023-02-01T04:21:45.385Z,990.23
2023-02-01T04:22:45.353Z,990.18
2023-02-01T04:23:45.327Z,990.18
2023-02-01T04:24:45.312Z,990.20
2023-02-01T04:25:45.309Z,990.14
2023-02-01T04:26:45.413Z,990.14
2023-02-01T04:27:45.311Z,990.12
2023-02-01T04:28:45.275Z,990.10
2023-02-01T04:29:45.269Z,990.10
2023-02-01T04:30:45.301Z,990.01
2023-02-01T04:31:45.330Z,990.00
2023-02-01T04:32:45.239Z,989.98
2023-02-01T04:33:45.239Z,989.94
2023-02-01T04:34:45.204Z,989.91
2023-02-01T04:35:45.206Z,989.87
2023-02-01T04:36:47.212Z,989.89
2023-02-01T04:37:46.178Z,989.87
2023-02-01T04:38:45.175Z,989.85
2023-02-01T04:39:45.182Z,989.89
2023-02-01T04:40:45.154Z,989.83
2023-02-01T04:41:45.167Z,989.92
2023-02-01T04:42:45.132Z,989.91
2023-02-01T04:43:45.125Z,989.94
2023-02-01T04:44:45.112Z,989.96
2023-02-01T04:45:45.148Z,989.96
2023-02-01T04:46:45.106Z,989.91
2023-02-01T04:47:45.092Z,989.97
2023-02-01T04:48:45.077Z,989.93
2023-02-01T04:49:45.071Z,989.90
2023-02-01T04:50:45.043Z,989.94
2023-02-01T04:51:45.043Z,989.85
2023-02-01T04:52:45.063Z,989.86
2023-02-01T04:53:45.023Z,989.83
2023-02-01T04:54:45.017Z,989.93
2023-02-01T04:55:44.993Z,989.76
2023-02-01T04:56:45.004Z,989.79
2023-02-01T04:57:44.997Z,989.72
2023-02-01T04:58:44.993Z,989.72
2023-02-01T04:59:44.965Z,989.75
2023-02-01T05:00:44.958Z,989.74
2023-02-01T05:01:45.689Z,989.72
2023-02-01T05:02:44.957Z,989.67
2023-02-01T05:03:44.929Z,989.71
2023-02-01T05:04:44.982Z,989.61
2023-02-01T05:05:44.904Z,989.62
2023-02-01T05:06:44.903Z,989.57
2023-02-01T05:07:44.910Z,989.56
2023-02-01T05:08:44.884Z,989.58
2023-02-01T05:09:44.860Z,989.56
2023-02-01T05:10:44.859Z,989.51
2023-02-01T05:11:44.850Z,989.58
2023-02-01T05:12:44.835Z,989.56
2023-02-01T05:13:44.839Z,989.56
2023-02-01T05:14:44.835Z,989.58
2023-02-01T05:15:44.872Z,989.59
2023-02-01T05:16:44.807Z,989.65
2023-02-01T05:17:44.791Z,989.67
2023-02-01T05:18:44.788Z,989.69
2023-02-01T05:19:44.783Z,989.67
2023-02-01T05:20:44.758Z,989.60
2023-02-01T05:21:44.785Z,989.66
2023-02-01T05:22:44.740Z,989.72
2023-02-01T05:23:44.731Z,989.73
2023-02-01T05:24:44.722Z,989.66
2023-02-01T05:25:44.700Z,989.76
2023-02-01T05:26:44.870Z,989.73
2023-02-01T05:27:44.699Z,989.75
2023-02-01T05:28:44.693Z,989.71
2023-02-01T05:29:44.686Z,989.65
2023-02-01T05:30:44.853Z,989.75
2023-02-01T05:31:44.771Z,989.65
2023-02-01T05:32:44.676Z,989.60
2023-02-01T05:33:44.645Z,989.61
2023-02-01T05:34:44.631Z,989.55
2023-02-01T05:35:44.618Z,989.64
2023-02-01T05:36:44.601Z,989.55
2023-02-01T05:37:44.618Z,989.55
2023-02-01T05:38:44.578Z,989.56
2023-02-01T05:39:44.585Z,989.51
2023-02-01T05:40:44.562Z,989.53
2023-02-01T05:41:44.558Z,989.50
2023-02-01T05:42:44.544Z,989.49
2023-02-01T05:43:44.574Z,989.46
2023-02-01T05:44:44.524Z,989.43
2023-02-01T05:45:44.519Z,989.42
2023-02-01T05:46:44.498Z,989.40
2023-02-01T05:47:44.491Z,989.31
2023-02-01T05:48:44.514Z,989.26
2023-02-01T05:49:44.487Z,989.24
2023-02-01T05:50:44.461Z,989.25
2023-02-01T05:51:44.450Z,989.18
2023-02-01T05:52:44.449Z,989.23
2023-02-01T05:53:44.436Z,989.23
2023-02-01T05:54:44.437Z,989.34
2023-02-01T05:55:44.431Z,989.31
2023-02-01T05:56:44.401Z,989.31
2023-02-01T05:57:44.415Z,989.28
2023-02-01T05:58:44.387Z,989.29
2023-02-01T05:59:44.388Z,989.24
2023-02-01T06:00:44.365Z,989.26
2023-02-01T06:01:44.352Z,989.28
2023-02-01T06:02:44.345Z,989.28
2023-02-01T06:03:44.353Z,989.30
2023-02-01T06:04:44.339Z,989.32
2023-02-01T06:05:44.339Z,989.28
2023-02-01T06:06:44.306Z,989.28
2023-02-01T06:07:44.304Z,989.30
2023-02-01T06:08:44.289Z,989.36
2023-02-01T06:09:44.294Z,989.32
2023-02-01T06:10:44.286Z,989.31
2023-02-01T06:11:44.269Z,989.34
2023-02-01T06:12:44.251Z,989.33
2023-02-01T06:13:44.252Z,989.31
2023-02-01T06:14:44.248Z,989.32
2023-02-01T06:15:44.287Z,989.33
2023-02-01T06:16:44.205Z,989.29
2023-02-01T06:17:44.206Z,989.29
2023-02-01T06:18:44.204Z,989.30
2023-02-01T06:19:44.177Z,989.28
2023-02-01T06:20:44.186Z,989.19
2023-02-01T06:21:44.168Z,989.17
2023-02-01T06:22:44.156Z,989.21
2023-02-01T06:23:44.142Z,989.15
2023-02-01T06:24:44.134Z,989.17
2023-02-01T06:25:44.142Z,989.15
2023-02-01T06:26:44.178Z,989.15
2023-02-01T06:27:44.099Z,989.14
2023-02-01T06:28:44.081Z,989.12
2023-02-01T06:29:44.081Z,989.21
2023-02-01T06:30:44.139Z,989.26
2023-02-01T06:31:44.125Z,989.24
2023-02-01T06:32:44.056Z,989.16
2023-02-01T06:33:44.051Z,989.21
2023-02-01T06:34:44.034Z,989.20
2023-02-01T06:35:44.024Z,989.30
2023-02-01T06:36:44.047Z,989.25
2023-02-01T06:37:43.990Z,989.37
2023-02-01T06:38:43.998Z,989.35
2023-02-01T06:39:43.972Z,989.42
2023-02-01T06:40:44.045Z,989.36
2023-02-01T06:41:43.983Z,989.40
2023-02-01T06:42:43.948Z,989.36
2023-02-01T06:43:43.935Z,989.35
2023-02-01T06:44:43.940Z,989.38
2023-02-01T06:45:43.927Z,989.33
2023-02-01T06:46:43.967Z,989.41
2023-02-01T06:47:43.932Z,989.39
2023-02-01T06:48:43.899Z,989.38
2023-02-01T06:49:43.887Z,989.32
2023-02-01T06:50:43.875Z,989.32
2023-02-01T06:51:43.859Z,989.33
2023-02-01T06:52:43.890Z,989.34
2023-02-01T06:53:43.852Z,989.34
2023-02-01T06:54:43.829Z,989.28
2023-02-01T06:55:43.823Z,989.18
2023-02-01T06:56:43.809Z,989.22
2023-02-01T06:57:43.799Z,989.34
2023-02-01T06:58:43.822Z,989.25
2023-02-01T06:59:43.789Z,989.28
2023-02-01T07:00:43.797Z,989.34
2023-02-01T07:01:43.810Z,989.33
2023-02-01T07:02:43.757Z,989.35
2023-02-01T07:03:43.762Z,989.28
2023-02-01T07:04:43.751Z,989.28
2023-02-01T07:05:43.721Z,989.28
2023-02-01T07:06:43.709Z,989.12
2023-02-01T07:07:43.705Z,989.03
2023-02-01T07:08:43.706Z,989.04
2023-02-01T07:09:43.714Z,989.20
2023-02-01T07:10:43.694Z,989.24
2023-02-01T07:12:15.584Z,989.23
2023-02-01T07:12:43.673Z,989.16
2023-02-01T07:13:43.673Z,989.24
2023-02-01T07:14:43.665Z,989.26
2023-02-01T07:15:43.671Z,989.28
2023-02-01T07:16:43.622Z,989.30
2023-02-01T07:17:43.614Z,989.31
2023-02-01T07:18:43.619Z,989.46
2023-02-01T07:19:43.604Z,989.34
2023-02-01T07:20:43.612Z,989.38
2023-02-01T07:21:43.588Z,989.38
2023-02-01T07:22:43.573Z,989.38
2023-02-01T07:23:43.578Z,989.37
2023-02-01T07:24:43.618Z,989.35
2023-02-01T07:25:43.544Z,989.44
2023-02-01T07:26:43.594Z,989.30
2023-02-01T07:27:43.531Z,989.32
2023-02-01T07:28:43.576Z,989.33
2023-02-01T07:29:43.615Z,989.29
2023-02-01T07:30:43.558Z,989.25
2023-02-01T07:31:43.511Z,989.25
2023-02-01T07:32:43.528Z,989.40
2023-02-01T07:33:43.484Z,989.39
2023-02-01T07:34:43.467Z,989.46
2023-02-01T07:35:43.477Z,989.39
2023-02-01T07:36:43.441Z,989.37
2023-02-01T07:37:43.425Z,989.40
2023-02-01T07:38:43.391Z,989.44
2023-02-01T07:39:43.443Z,989.40
2023-02-01T07:40:43.417Z,989.45
2023-02-01T07:41:43.398Z,989.43
2023-02-01T07:42:43.383Z,989.37
2023-02-01T07:43:43.403Z,989.35
2023-02-01T07:44:43.372Z,989.46
2023-02-01T07:45:43.381Z,989.36
2023-02-01T07:46:43.358Z,989.46
2023-02-01T07:47:43.336Z,989.44
2023-02-01T07:48:43.321Z,989.54
2023-02-01T07:49:43.319Z,989.41
2023-02-01T07:50:43.322Z,989.59
2023-02-01T07:51:43.319Z,989.51
2023-02-01T07:52:43.296Z,989.52
2023-02-01T07:53:43.284Z,989.55
2023-02-01T07:54:43.304Z,989.58
2023-02-01T07:55:43.266Z,989.57
2023-02-01T07:56:43.281Z,989.60
2023-02-01T07:57:43.226Z,989.55
2023-02-01T07:58:43.229Z,989.54
2023-02-01T07:59:43.219Z,989.58
2023-02-01T08:00:43.216Z,989.52
2023-02-01T08:01:43.205Z,989.46
2023-02-01T08:02:43.241Z,989.49
2023-02-01T08:03:43.202Z,989.58
2023-02-01T08:04:43.183Z,989.58
2023-02-01T08:05:43.185Z,989.51
2023-02-01T08:06:43.162Z,989.47
2023-02-01T08:07:43.168Z,989.53
2023-02-01T08:08:43.140Z,989.63
2023-02-01T08:09:43.121Z,989.61
2023-02-01T08:10:43.107Z,989.60
2023-02-01T08:11:43.090Z,989.57
2023-02-01T08:12:43.110Z,989.56
2023-02-01T08:13:43.095Z,989.50
2023-02-01T08:14:43.066Z,989.59
2023-02-01T08:15:43.068Z,989.63
2023-02-01T08:16:43.130Z,989.66
2023-02-01T08:17:43.047Z,989.64
2023-02-01T08:18:43.052Z,989.75
2023-02-01T08:19:43.028Z,989.73
2023-02-01T08:20:43.013Z,989.81
2023-02-01T08:21:43.018Z,989.73
2023-02-01T08:22:42.990Z,989.77
2023-02-01T08:23:43.021Z,989.83
2023-02-01T08:24:42.966Z,989.89
2023-02-01T08:25:42.973Z,989.87
2023-02-01T08:26:43.041Z,989.97
2023-02-01T08:27:42.980Z,989.94
2023-02-01T08:28:42.960Z,990.00
2023-02-01T08:29:42.929Z,990.06
2023-02-01T08:30:42.977Z,990.13
2023-02-01T08:31:43.075Z,990.01
2023-02-01T08:32:42.893Z,990.14
2023-02-01T08:33:42.899Z,990.10
2023-02-01T08:34:42.891Z,990.12
2023-02-01T08:35:44.223Z,990.14
2023-02-01T08:36:43.888Z,990.21
2023-02-01T08:37:42.863Z,990.30
2023-02-01T08:38:42.844Z,990.39
2023-02-01T08:39:42.835Z,990.28
2023-02-01T08:40:42.831Z,990.40
2023-02-01T08:41:42.850Z,990.36
2023-02-01T08:42:42.813Z,990.32
2023-02-01T08:43:42.796Z,990.38
2023-02-01T08:44:42.771Z,990.31
2023-02-01T08:45:42.770Z,990.33
2023-02-01T08:46:42.771Z,990.28
2023-02-01T08:47:42.769Z,990.21
2023-02-01T08:48:42.729Z,990.21
2023-02-01T08:49:42.754Z,990.24
2023-02-01T08:50:42.716Z,990.22
2023-02-01T08:51:42.761Z,990.26
2023-02-01T08:52:42.704Z,990.27
2023-02-01T08:53:42.688Z,990.30
2023-02-01T08:54:42.738Z,990.31
2023-02-01T08:55:42.661Z,990.33
2023-02-01T08:56:42.737Z,990.29
2023-02-01T08:57:42.686Z,990.31
2023-02-01T08:58:42.661Z,990.31
2023-02-01T08:59:42.628Z,990.37
2023-02-01T09:00:42.623Z,990.39
2023-02-01T09:01:42.649Z,990.36
2023-02-01T09:02:42.622Z,990.33
2023-02-01T09:03:42.703Z,990.37
2023-02-01T09:04:42.589Z,990.38
2023-02-01T09:05:49.334Z,990.34
2023-02-01T09:06:44.602Z,990.30
2023-02-01T09:07:42.549Z,990.37
2023-02-01T09:08:42.547Z,990.44
2023-02-01T09:09:42.522Z,990.33
2023-02-01T09:10:42.513Z,990.46
2023-02-01T09:11:42.534Z,990.46
2023-02-01T09:12:42.490Z,990.38
2023-02-01T09:13:42.557Z,990.44
2023-02-01T09:14:42.495Z,990.42
2023-02-01T09:15:42.519Z,990.39
2023-02-01T09:16:42.499Z,990.43
2023-02-01T09:17:42.470Z,990.45
2023-02-01T09:18:50.894Z,990.50
2023-02-01T09:19:43.430Z,990.50
2023-02-01T09:20:43.440Z,990.51
2023-02-01T09:21:42.423Z,990.58
2023-02-01T09:22:42.406Z,990.52
2023-02-01T09:23:42.415Z,990.48
2023-02-01T09:24:42.410Z,990.50
2023-02-01T09:25:43.393Z,990.57
2023-02-01T09:26:42.397Z,990.57
2023-02-01T09:27:42.360Z,990.70
2023-02-01T09:28:42.357Z,990.61
2023-02-01T09:29:42.483Z,990.67
2023-02-01T09:30:42.455Z,990.69
2023-02-01T09:31:49.879Z,990.75
2023-02-01T09:32:44.315Z,990.64
2023-02-01T09:33:42.325Z,990.69
2023-02-01T09:34:42.342Z,990.66
2023-02-01T09:35:42.312Z,990.67
2023-02-01T09:36:42.309Z,990.63
2023-02-01T09:37:42.276Z,990.68
2023-02-01T09:38:52.365Z,990.70
2023-02-01T09:39:44.266Z,990.70
2023-02-01T09:40:42.255Z,990.77
2023-02-01T09:41:42.231Z,990.82
2023-02-01T09:42:42.217Z,990.70
2023-02-01T09:43:43.260Z,990.78
2023-02-01T09:44:44.657Z,990.73
2023-02-01T09:45:42.171Z,990.75
2023-02-01T09:46:42.180Z,990.76
2023-02-01T09:47:42.166Z,990.78
2023-02-01T09:48:42.167Z,990.72
2023-02-01T09:49:42.160Z,990.74
2023-02-01T09:50:42.199Z,990.72
2023-02-01T09:51:42.158Z,990.77
2023-02-01T09:52:42.134Z,990.75
2023-02-01T09:53:42.103Z,990.74
2023-02-01T09:54:42.088Z,990.81
2023-02-01T09:55:42.111Z,990.85
2023-02-01T09:56:42.113Z,990.85
2023-02-01T09:57:42.057Z,990.84
2023-02-01T09:58:42.074Z,990.85
2023-02-01T09:59:42.072Z,990.81
2023-02-01T10:00:42.022Z,990.80
2023-02-01T10:01:42.086Z,990.74
2023-02-01T10:02:42.021Z,990.84
2023-02-01T10:03:42.002Z,990.83
2023-02-01T10:04:41.988Z,990.82
2023-02-01T10:05:41.975Z,990.88
2023-02-01T10:06:41.974Z,990.87
2023-02-01T10:07:41.998Z,990.84
2023-02-01T10:08:42.023Z,990.84
2023-02-01T10:09:41.923Z,990.85
2023-02-01T10:10:41.929Z,990.83
2023-02-01T10:11:41.966Z,990.84
2023-02-01T10:12:41.902Z,990.91
2023-02-01T10:13:41.914Z,990.84
2023-02-01T10:14:41.950Z,990.79
2023-02-01T10:15:41.936Z,990.78
2023-02-01T10:16:41.979Z,990.71
2023-02-01T10:17:41.861Z,990.80
2023-02-01T10:18:41.882Z,990.67
2023-02-01T10:19:41.859Z,990.72
2023-02-01T10:20:41.831Z,990.67
2023-02-01T10:21:41.806Z,990.62
2023-02-01T10:23:05.028Z,990.59
2023-02-01T10:23:43.849Z,990.63
2023-02-01T10:24:41.815Z,990.64
2023-02-01T10:25:41.831Z,990.55
2023-02-01T10:26:41.907Z,990.60
2023-02-01T10:27:41.791Z,990.58
2023-02-01T10:28:41.754Z,990.52
2023-02-01T10:29:41.784Z,990.54
2023-02-01T10:30:41.876Z,990.55
2023-02-01T10:31:41.804Z,990.55
2023-02-01T10:32:41.743Z,990.52
2023-02-01T10:33:41.703Z,990.50
2023-02-01T10:34:41.703Z,990.51
2023-02-01T10:35:41.677Z,990.46
2023-02-01T10:36:41.733Z,990.41
2023-02-01T10:37:41.704Z,990.44
2023-02-01T10:38:41.647Z,990.32
2023-02-01T10:39:41.714Z,990.39
2023-02-01T10:40:42.660Z,990.38
2023-02-01T10:41:41.639Z,990.36
2023-02-01T10:42:41.607Z,990.44
2023-02-01T10:43:41.682Z,990.40
2023-02-01T10:44:41.644Z,990.35
2023-02-01T10:45:41.598Z,990.30
2023-02-01T10:46:41.591Z,990.29
2023-02-01T10:47:41.566Z,990.36
2023-02-01T10:48:41.549Z,990.40
2023-02-01T10:49:41.588Z,990.36
2023-02-01T10:50:41.595Z,990.33
2023-02-01T10:51:41.575Z,990.27
2023-02-01T10:52:41.517Z,990.19
2023-02-01T10:53:41.530Z,990.26
2023-02-01T10:54:41.523Z,990.29
2023-02-01T10:55:41.551Z,990.29
2023-02-01T10:56:41.484Z,990.27
2023-02-01T10:57:41.482Z,990.14
2023-02-01T10:58:41.465Z,990.16
2023-02-01T10:59:41.471Z,990.16
2023-02-01T11:00:41.435Z,990.25
2023-02-01T11:01:41.464Z,990.13
2023-02-01T11:02:41.444Z,990.22
2023-02-01T11:03:41.427Z,990.21
2023-02-01T11:04:41.416Z,990.17
2023-02-01T11:05:41.374Z,990.21
2023-02-01T11:06:41.376Z,990.14
2023-02-01T11:07:41.342Z,990.19
2023-02-01T11:08:41.348Z,990.15
2023-02-01T11:09:41.371Z,990.11
2023-02-01T11:10:41.357Z,990.10
2023-02-01T11:11:41.319Z,990.09
2023-02-01T11:12:41.319Z,990.06
2023-02-01T11:13:41.304Z,990.09
2023-02-01T11:14:41.320Z,990.04
2023-02-01T11:15:41.310Z,990.08
2023-02-01T11:16:41.259Z,990.08
2023-02-01T11:17:41.271Z,990.08
2023-02-01T11:18:41.242Z,990.12
2023-02-01T11:19:41.248Z,990.14
2023-02-01T11:20:42.247Z,989.80
2023-02-01T11:21:41.216Z,989.96
2023-02-01T11:22:41.235Z,990.03
2023-02-01T11:23:41.228Z,990.01
2023-02-01T11:24:41.212Z,989.95
2023-02-01T11:25:41.229Z,989.92
2023-02-01T11:26:41.243Z,989.88
2023-02-01T11:27:53.110Z,989.90
2023-02-01T11:28:43.148Z,989.93
2023-02-01T11:29:41.166Z,990.00
2023-02-01T11:30:41.223Z,990.03
2023-02-01T11:31:41.203Z,990.06
2023-02-01T11:32:41.104Z,989.91
2023-02-01T11:33:41.128Z,990.03
2023-02-01T11:34:41.083Z,989.89
2023-02-01T11:35:41.072Z,989.99
2023-02-01T11:36:41.096Z,989.91
2023-02-01T11:37:41.082Z,989.86
2023-02-01T11:38:41.050Z,989.83
2023-02-01T11:39:41.067Z,989.78
2023-02-01T11:40:41.032Z,989.80
2023-02-01T11:41:41.008Z,989.76
2023-02-01T11:42:41.029Z,989.88
2023-02-01T11:43:40.997Z,989.86
2023-02-01T11:44:40.988Z,989.81
2023-02-01T11:45:40.977Z,989.78
2023-02-01T11:46:41.001Z,989.85
2023-02-01T11:47:40.959Z,989.83
2023-02-01T11:48:40.937Z,989.78
2023-02-01T11:49:40.943Z,989.74
2023-02-01T11:50:40.938Z,989.76
2023-02-01T11:51:40.941Z,989.78
2023-02-01T11:52:40.941Z,989.71
2023-02-01T11:53:40.897Z,989.74
2023-02-01T11:54:40.886Z,989.72
2023-02-01T11:55:40.906Z,989.67
2023-02-01T11:56:40.866Z,989.55
2023-02-01T11:57:40.878Z,989.64
2023-02-01T11:58:40.902Z,989.69
2023-02-01T11:59:43.081Z,989.61
2023-02-01T12:00:41.831Z,989.66
2023-02-01T12:01:41.885Z,989.61
2023-02-01T12:02:41.735Z,989.70
2023-02-01T12:03:40.802Z,989.64
2023-02-01T12:04:40.812Z,989.72
2023-02-01T12:05:40.774Z,989.73
2023-02-01T12:06:40.797Z,989.77
2023-02-01T12:07:40.791Z,989.77
2023-02-01T12:08:40.759Z,989.76
2023-02-01T12:09:40.734Z,989.79
2023-02-01T12:10:40.761Z,989.77
2023-02-01T12:11:40.718Z,989.76
2023-02-01T12:12:40.737Z,989.81
2023-02-01T12:13:40.769Z,989.75
2023-02-01T12:14:40.687Z,989.81
2023-02-01T12:15:40.699Z,989.78
2023-02-01T12:16:40.714Z,989.80
2023-02-01T12:17:40.686Z,989.80
2023-02-01T12:18:40.683Z,989.78
2023-02-01T12:19:40.642Z,989.67
2023-02-01T12:20:41.675Z,989.74
2023-02-01T12:21:40.622Z,989.67
2023-02-01T12:22:40.623Z,989.70
2023-02-01T12:23:40.615Z,989.68
2023-02-01T12:24:40.599Z,989.53
2023-02-01T12:25:40.654Z,989.68
2023-02-01T12:26:40.629Z,989.57
2023-02-01T12:27:40.564Z,989.63
2023-02-01T12:28:40.571Z,989.63